Time;durP1;ratioP1;P1;durP2;ratioP2;P2;SDS_P1;SDS_P2;PMS_P1;PMS_P2;Temp;Humidity;BMP_temperature;BMP_pressure;BME280_temperature;BME280_humidity;BME280_pressure;Samples;Min_cycle;Max_cycle;Signal;HPM_P1;HPM_P2
2022/03/30 00:04:20;;;;;;;;;;;6.40;1.00;;;;;;10371447;28;85115;-49
2022/03/30 00:09:21;;;;;;;;;;;6.30;1.00;;;;;;10372751;28;84344;-46
2022/03/30 00:14:22;;;;;;;;;;;6.20;1.00;;;;;;10373088;28;84155;-48
2022/03/30 00:19:23;;;;;;;;;;;6.20;1.00;;;;;;10372206;28;84579;-46
2022/03/30 00:24:23;;;;;;;;;;;6.10;1.00;;;;;;10372238;28;84921;-49
2022/03/30 00:29:24;;;;;;;;;;;6.10;1.00;;;;;;10356616;22;85760;-56
2022/03/30 00:34:24;;;;;;;;;;;6.10;1.00;;;;;;10333698;28;84088;-52
2022/03/30 00:39:25;;;;;;;;;;;6.00;1.00;;;;;;10297768;28;87211;-53
2022/03/30 00:44:26;;;;;;;;;;;6.00;1.00;;;;;;10332392;28;84826;-52
2022/03/30 00:49:26;;;;;;;;;;;5.90;1.00;;;;;;10331155;28;84237;-50
2022/03/30 00:54:27;;;;;;;;;;;5.80;1.00;;;;;;10331029;28;96768;-55
2022/03/30 00:59:27;;;;;;;;;;;5.80;1.00;;;;;;10331274;28;84824;-52
2022/03/30 01:04:28;;;;;;;;;;;5.70;1.00;;;;;;10331426;28;84710;-53
2022/03/30 01:09:29;;;;;;;;;;;5.70;1.00;;;;;;10331424;28;84809;-54
2022/03/30 01:14:31;;;;;;;;;;;5.50;1.00;;;;;;10331489;28;83995;-50
2022/03/30 01:19:32;;;;;;;;;;;5.50;1.00;;;;;;10330641;28;86584;-51
2022/03/30 01:24:33;;;;;;;;;;;5.50;1.00;;;;;;10330897;28;84706;-51
2022/03/30 01:34:54;;;;;;;;;;;5.40;1.00;;;;;;10330558;28;84331;-53
2022/03/30 01:40:03;;;;;;;;;;;5.40;1.00;;;;;;10330169;28;84263;-55
2022/03/30 01:45:04;;;;;;;;;;;5.40;1.00;;;;;;10337250;28;84772;-50
2022/03/30 01:50:05;;;;;;;;;;;5.40;1.00;;;;;;10347877;28;84863;-52
2022/03/30 01:55:06;;;;;;;;;;;5.40;1.00;;;;;;10332912;28;84142;-53
2022/03/30 02:00:07;;;;;;;;;;;5.30;1.00;;;;;;10329070;28;84108;-54
2022/03/30 02:05:13;;;;;;;;;;;5.30;1.00;;;;;;10327633;28;84525;-52
2022/03/30 02:10:13;;;;;;;;;;;5.30;1.00;;;;;;10329096;28;85406;-53
2022/03/30 02:15:14;;;;;;;;;;;5.30;1.00;;;;;;10329056;28;85655;-51
2022/03/30 02:20:14;;;;;;;;;;;5.30;1.00;;;;;;10311289;28;84126;-52
2022/03/30 02:25:15;;;;;;;;;;;5.20;1.00;;;;;;10328111;28;84787;-53
2022/03/30 02:30:15;;;;;;;;;;;5.20;1.00;;;;;;10328071;28;85109;-52
2022/03/30 02:35:18;;;;;;;;;;;5.10;1.00;;;;;;10308399;28;84416;-50
2022/03/30 02:40:19;;;;;;;;;;;5.10;1.00;;;;;;10269747;28;86085;-56
2022/03/30 02:45:19;;;;;;;;;;;5.00;1.00;;;;;;10315088;28;84018;-52
2022/03/30 02:50:20;;;;;;;;;;;5.10;1.00;;;;;;10327701;28;85109;-53
2022/03/30 02:55:20;;;;;;;;;;;5.10;1.00;;;;;;10310497;28;84416;-52
2022/03/30 03:00:21;;;;;;;;;;;5.00;1.00;;;;;;10327703;28;84815;-52
2022/03/30 03:05:22;;;;;;;;;;;5.00;1.00;;;;;;10327466;28;84138;-56
2022/03/30 03:10:22;;;;;;;;;;;4.90;1.00;;;;;;10327702;28;84141;-55
2022/03/30 03:15:23;;;;;;;;;;;4.90;1.00;;;;;;10292743;28;85974;-53
2022/03/30 03:20:27;;;;;;;;;;;4.80;1.00;;;;;;10314320;28;84801;-52
2022/03/30 03:25:31;;;;;;;;;;;4.80;1.00;;;;;;10311253;28;84285;-54
2022/03/30 03:30:32;;;;;;;;;;;4.80;1.00;;;;;;10286593;28;84764;-52
2022/03/30 03:35:32;;;;;;;;;;;4.80;1.00;;;;;;10294253;28;84859;-53
2022/03/30 03:40:34;;;;;;;;;;;4.80;1.00;;;;;;10300540;28;86024;-54
2022/03/30 03:45:34;;;;;;;;;;;4.80;1.00;;;;;;10333752;28;84190;-55
2022/03/30 03:50:35;;;;;;;;;;;4.70;1.00;;;;;;10335175;28;84899;-54
2022/03/30 03:55:36;;;;;;;;;;;4.70;1.00;;;;;;10333581;28;84130;-53
2022/03/30 04:00:37;;;;;;;;;;;4.60;1.00;;;;;;10334837;28;84328;-56
2022/03/30 04:05:37;;;;;;;;;;;4.50;1.00;;;;;;10333221;28;85011;-57
2022/03/30 04:10:38;;;;;;;;;;;4.40;1.00;;;;;;10331662;28;84095;-53
2022/03/30 04:15:38;;;;;;;;;;;4.40;1.00;;;;;;10345202;28;84116;-56
2022/03/30 04:20:41;;;;;;;;;;;4.30;1.00;;;;;;10374073;28;84045;-50
2022/03/30 04:25:42;;;;;;;;;;;4.30;1.00;;;;;;10352378;28;84844;-52
2022/03/30 04:30:42;;;;;;;;;;;4.20;1.00;;;;;;10333298;28;84161;-51
2022/03/30 04:35:43;;;;;;;;;;;4.20;1.00;;;;;;10332801;28;85029;-57
2022/03/30 04:40:43;;;;;;;;;;;4.10;1.00;;;;;;10333110;28;84119;-56
2022/03/30 04:45:44;;;;;;;;;;;4.10;1.00;;;;;;10331347;28;85066;-49
2022/03/30 04:50:45;;;;;;;;;;;4.00;1.00;;;;;;10331656;28;84853;-54
2022/03/30 04:55:45;;;;;;;;;;;4.00;1.00;;;;;;10330962;28;84192;-51
2022/03/30 05:00:46;;;;;;;;;;;4.00;1.00;;;;;;10332535;28;84557;-54
2022/03/30 05:05:46;;;;;;;;;;;3.90;1.00;;;;;;10330246;28;84195;-55
2022/03/30 05:10:47;;;;;;;;;;;3.90;1.00;;;;;;10331834;28;84845;-54
2022/03/30 05:15:47;;;;;;;;;;;3.90;1.00;;;;;;10312829;28;84899;-54
2022/03/30 05:20:48;;;;;;;;;;;4.00;1.00;;;;;;10331316;28;84042;-50
2022/03/30 05:25:48;;;;;;;;;;;4.00;1.00;;;;;;10328508;28;85108;-53
2022/03/30 05:30:49;;;;;;;;;;;4.00;1.00;;;;;;10333121;28;86650;-57
2022/03/30 05:35:50;;;;;;;;;;;4.00;1.00;;;;;;10329329;28;85987;-56
2022/03/30 05:40:50;;;;;;;;;;;4.00;1.00;;;;;;10342520;28;84002;-56
2022/03/30 05:45:51;;;;;;;;;;;4.10;1.00;;;;;;10336285;28;85090;-54
2022/03/30 05:50:53;;;;;;;;;;;4.20;1.00;;;;;;10311781;28;86929;-54
2022/03/30 05:55:55;;;;;;;;;;;4.30;1.00;;;;;;10309058;28;84972;-54
2022/03/30 06:00:55;;;;;;;;;;;4.30;1.00;;;;;;10337998;28;84732;-56
2022/03/30 06:05:56;;;;;;;;;;;4.40;1.00;;;;;;10333714;28;84319;-56
2022/03/30 06:10:57;;;;;;;;;;;4.50;1.00;;;;;;10328575;28;84864;-54
2022/03/30 06:15:57;;;;;;;;;;;4.70;1.00;;;;;;10312137;28;84179;-54
2022/03/30 06:20:58;;;;;;;;;;;4.80;1.00;;;;;;10330449;28;85130;-53
2022/03/30 06:31:31;;;;;;;;;;;4.80;1.00;;;;;;10284018;28;84060;-48
2022/03/30 06:36:33;;;;;;;;;;;5.00;1.00;;;;;;10288214;28;84427;-47
2022/03/30 06:41:34;;;;;;;;;;;5.00;1.00;;;;;;10259802;28;86002;-48
2022/03/30 06:46:38;;;;;;;;;;;5.30;1.00;;;;;;10244786;28;84828;-48
2022/03/30 06:51:38;;;;;;;;;;;5.60;1.00;;;;;;10246650;28;84110;-57
2022/03/30 06:56:39;;;;;;;;;;;6.10;1.00;;;;;;10245699;28;84180;-55
2022/03/30 07:01:40;;;;;;;;;;;6.70;1.00;;;;;;10246747;28;84234;-57
2022/03/30 07:10:14;;;;;;;;;;;7.30;1.00;;;;;;10226824;28;87353;-55
2022/03/30 07:12:01;;;;;;;;;;;7.70;1.00;;;;;;10226787;28;85780;-52
2022/03/30 07:17:01;;;;;;;;;;;7.90;99.90;;;;;;10244898;28;84250;-54
2022/03/30 07:22:02;;;;;;;;;;;8.00;99.90;;;;;;10245665;28;84230;-57
2022/03/30 07:27:03;;;;;;;;;;;8.60;99.90;;;;;;10242501;28;86066;-57
2022/03/30 07:32:03;;;;;;;;;;;9.00;1.00;;;;;;10246106;28;84781;-57
2022/03/30 07:37:04;;;;;;;;;;;9.30;1.00;;;;;;10243722;28;84226;-56
2022/03/30 07:42:05;;;;;;;;;;;9.70;1.00;;;;;;10226552;28;85097;-58
2022/03/30 07:47:06;;;;;;;;;;;9.90;1.00;;;;;;10243527;28;84964;-57
2022/03/30 07:52:06;;;;;;;;;;;10.10;1.00;;;;;;10245116;28;84489;-58
2022/03/30 07:57:07;;;;;;;;;;;10.70;99.90;;;;;;10242771;28;84754;-58
2022/03/30 08:02:09;;;;;;;;;;;11.10;99.90;;;;;;10244531;28;84844;-55
2022/03/30 08:07:09;;;;;;;;;;;11.40;1.00;;;;;;10243718;28;84149;-57
2022/03/30 08:12:10;;;;;;;;;;;11.60;94.90;;;;;;10244142;28;84123;-59
2022/03/30 08:17:11;;;;;;;;;;;11.90;1.00;;;;;;10243291;28;84264;-55
2022/03/30 08:22:28;;;;;;;;;;;12.30;1.00;;;;;;10244892;28;84914;-58
2022/03/30 08:27:29;;;;;;;;;;;12.50;1.00;;;;;;10249728;28;84184;-58
2022/03/30 08:32:30;;;;;;;;;;;12.80;1.00;;;;;;10250377;28;84163;-54
2022/03/30 08:37:30;;;;;;;;;;;12.90;1.00;;;;;;10249313;28;84864;-52
2022/03/30 08:42:31;;;;;;;;;;;13.20;1.00;;;;;;10249001;28;84896;-59
2022/03/30 08:47:32;;;;;;;;;;;13.50;1.00;;;;;;10249077;28;86959;-59
2022/03/30 08:52:33;;;;;;;;;;;13.70;1.00;;;;;;10249019;28;84295;-55
2022/03/30 08:57:34;;;;;;;;;;;13.70;1.00;;;;;;10231178;28;86950;-57
2022/03/30 09:02:42;;;;;;;;;;;14.10;1.00;;;;;;10232025;28;86977;-56
2022/03/30 09:07:43;;;;;;;;;;;14.70;99.90;;;;;;10249098;28;84109;-60
2022/03/30 09:12:45;;;;;;;;;;;15.10;99.90;;;;;;10233176;28;85461;-59
2022/03/30 09:17:47;;;;;;;;;;;15.20;99.90;;;;;;10238510;28;84887;-46
2022/03/30 09:22:48;;;;;;;;;;;15.10;99.90;;;;;;10210993;28;86000;-47
2022/03/30 09:27:51;;;;;;;;;;;15.60;1.00;;;;;;10253613;28;84191;-46
2022/03/30 09:32:54;;;;;;;;;;;15.30;1.00;;;;;;10264876;28;85008;-53
2022/03/30 09:38:02;;;;;;;;;;;14.90;1.00;;;;;;10246457;28;84176;-49
2022/03/30 09:43:11;;;;;;;;;;;14.30;99.90;;;;;;10213993;28;86378;-50
2022/03/30 09:48:17;;;;;;;;;;;14.90;99.90;;;;;;10244816;28;84456;-47
2022/03/30 09:53:20;;;;;;;;;;;15.50;99.90;;;;;;10247942;28;84792;-56
2022/03/30 09:58:21;;;;;;;;;;;16.10;51.50;;;;;;10229919;28;85762;-61
2022/03/30 10:03:21;;;;;;;;;;;16.30;1.00;;;;;;10281965;28;85173;-58
2022/03/30 10:08:22;;;;;;;;;;;16.90;1.00;;;;;;10231386;28;84641;-59
2022/03/30 10:13:24;;;;;;;;;;;16.60;1.00;;;;;;10248271;28;84723;-53
2022/03/30 10:18:25;;;;;;;;;;;16.70;1.00;;;;;;10247421;28;84090;-57
2022/03/30 10:23:30;;;;;;;;;;;17.50;99.90;;;;;;10247960;28;85340;-50
2022/03/30 10:28:40;;;;;;;;;;;17.50;1.00;;;;;;10242242;28;84848;-47
2022/03/30 10:33:42;;;;;;;;;;;17.20;84.40;;;;;;10250060;28;85094;-49
2022/03/30 10:39:12;;;;;;;;;;;17.60;1.00;;;;;;10246158;28;85336;-46
2022/03/30 10:44:34;;;;;;;;;;;17.20;99.90;;;;;;10237685;28;85920;-49
2022/03/30 10:49:41;;;;;;;;;;;17.40;99.90;;;;;;10244283;28;84108;-48
2022/03/30 10:54:42;;;;;;;;;;;18.10;1.00;;;;;;10245587;28;84269;-46
2022/03/30 11:00:02;;;;;;;;;;;17.90;1.00;;;;;;10247195;28;84342;-47
2022/03/30 11:05:10;;;;;;;;;;;18.20;99.90;;;;;;10246233;28;84949;-51
2022/03/30 11:10:13;;;;;;;;;;;18.10;1.00;;;;;;10242074;28;84293;-49
2022/03/30 11:15:14;;;;;;;;;;;17.60;1.00;;;;;;10244278;28;84312;-51
2022/03/30 11:20:14;;;;;;;;;;;17.70;1.00;;;;;;10244251;28;84285;-48
2022/03/30 11:25:23;;;;;;;;;;;17.30;1.00;;;;;;10243971;28;84223;-49
2022/03/30 11:30:31;;;;;;;;;;;16.40;1.00;;;;;;10250962;28;85349;-51
2022/03/30 11:35:33;;;;;;;;;;;16.60;46.10;;;;;;10236081;28;86873;-46
2022/03/30 11:40:34;;;;;;;;;;;16.60;11.80;;;;;;10243932;28;84064;-48
2022/03/30 11:45:35;;;;;;;;;;;16.60;1.00;;;;;;10243382;28;84110;-51
2022/03/30 11:50:41;;;;;;;;;;;15.70;99.90;;;;;;10244881;28;84054;-48
2022/03/30 11:55:55;;;;;;;;;;;15.30;1.00;;;;;;10240074;28;84872;-48
2022/03/30 12:00:57;;;;;;;;;;;15.00;1.00;;;;;;10258616;28;84851;-48
2022/03/30 12:05:58;;;;;;;;;;;15.00;1.00;;;;;;10255803;28;84096;-51
2022/03/30 12:10:59;;;;;;;;;;;14.60;1.00;;;;;;10233951;28;84825;-47
2022/03/30 12:16:01;;;;;;;;;;;14.90;99.90;;;;;;10233412;28;86325;-47
2022/03/30 12:21:02;;;;;;;;;;;15.60;99.90;;;;;;10233016;28;85032;-51
2022/03/30 12:26:15;;;;;;;;;;;15.70;1.00;;;;;;10249988;28;84708;-49
2022/03/30 12:31:15;;;;;;;;;;;15.00;1.00;;;;;;10373897;22;84920;-47
2022/03/30 12:36:20;;;;;;;;;;;13.90;99.90;;;;;;10356363;28;85115;-49
2022/03/30 12:41:24;;;;;;;;;;;13.60;99.90;;;;;;10370523;28;84524;-48
2022/03/30 12:46:28;;;;;;;;;;;14.30;1.00;;;;;;10372135;28;83990;-50
2022/03/30 12:51:30;;;;;;;;;;;14.90;99.90;;;;;;10369933;28;85950;-49
2022/03/30 12:56:31;;;;;;;;;;;15.70;1.00;;;;;;10372975;28;84159;-47
2022/03/30 13:01:34;;;;;;;;;;;15.90;1.00;;;;;;10369992;28;84285;-49
2022/03/30 13:06:34;;;;;;;;;;;15.10;1.00;;;;;;10367267;28;84202;-51
2022/03/30 13:11:49;;;;;;;;;;;14.90;54.20;;;;;;10372391;28;84861;-48
2022/03/30 13:16:53;;;;;;;;;;;15.30;1.00;;;;;;10370614;28;84150;-48
2022/03/30 13:21:56;;;;;;;;;;;15.80;1.00;;;;;;10351002;28;85929;-49
2022/03/30 13:27:02;;;;;;;;;;;16.30;1.00;;;;;;10370158;28;85151;-45
2022/03/30 13:32:03;;;;;;;;;;;16.40;1.00;;;;;;10367398;28;86790;-48
2022/03/30 13:37:03;;;;;;;;;;;16.30;99.90;;;;;;10366744;28;84505;-49
2022/03/30 13:42:04;;;;;;;;;;;16.10;99.90;;;;;;10371659;28;84191;-51
2022/03/30 13:47:04;;;;;;;;;;;15.80;1.00;;;;;;10369710;28;84802;-51
2022/03/30 13:52:05;;;;;;;;;;;15.10;1.00;;;;;;10370600;28;84685;-50
2022/03/30 13:57:06;;;;;;;;;;;14.60;1.00;;;;;;10369436;28;84218;-50
2022/03/30 14:02:06;;;;;;;;;;;14.10;1.00;;;;;;10368231;28;85044;-47
2022/03/30 14:07:07;;;;;;;;;;;14.10;1.00;;;;;;10368229;28;85219;-49
2022/03/30 14:12:08;;;;;;;;;;;14.00;99.90;;;;;;10351496;28;84143;-52
2022/03/30 14:17:09;;;;;;;;;;;14.10;1.00;;;;;;10368722;28;84145;-51
2022/03/30 14:22:09;;;;;;;;;;;14.10;1.00;;;;;;10369135;28;84198;-50
2022/03/30 14:27:10;;;;;;;;;;;14.20;1.00;;;;;;10347984;28;87118;-51
2022/03/30 14:32:10;;;;;;;;;;;14.30;1.00;;;;;;10369278;28;84181;-52
2022/03/30 14:37:11;;;;;;;;;;;14.20;1.00;;;;;;10350345;28;86049;-51
2022/03/30 14:42:11;;;;;;;;;;;13.90;46.50;;;;;;10369345;28;84120;-48
2022/03/30 14:47:12;;;;;;;;;;;13.40;99.90;;;;;;10348980;28;84725;-50
2022/03/30 14:52:17;;;;;;;;;;;13.40;1.00;;;;;;10368472;28;84500;-48
2022/03/30 14:57:17;;;;;;;;;;;13.10;99.90;;;;;;10361413;28;84910;-49
2022/03/30 15:02:18;;;;;;;;;;;12.80;99.90;;;;;;10362959;28;84834;-46
2022/03/30 15:07:19;;;;;;;;;;;12.70;73.70;;;;;;10344946;28;86728;-52
2022/03/30 15:12:19;;;;;;;;;;;12.50;99.90;;;;;;10368216;28;84898;-48
2022/03/30 15:17:20;;;;;;;;;;;12.40;35.30;;;;;;10366079;28;90262;-52
2022/03/30 15:22:20;;;;;;;;;;;12.10;99.90;;;;;;10365798;28;84802;-49
2022/03/30 15:27:21;;;;;;;;;;;12.00;10.90;;;;;;10360002;28;84239;-51
2022/03/30 15:32:22;;;;;;;;;;;11.60;99.90;;;;;;10373728;28;84673;-49
2022/03/30 15:37:23;;;;;;;;;;;11.60;1.00;;;;;;10378891;28;84916;-48
2022/03/30 15:42:23;;;;;;;;;;;11.50;99.90;;;;;;10380541;28;84107;-46
2022/03/30 15:47:24;;;;;;;;;;;11.30;1.00;;;;;;10379782;28;84524;-46
2022/03/30 15:52:25;;;;;;;;;;;11.00;99.90;;;;;;10380569;28;83987;-48
2022/03/30 15:57:26;;;;;;;;;;;10.80;1.00;;;;;;10377778;28;84852;-49
2022/03/30 16:02:26;;;;;;;;;;;10.80;1.00;;;;;;10359610;28;86695;-47
2022/03/30 16:07:27;;;;;;;;;;;10.80;99.90;;;;;;10379617;28;84860;-49
2022/03/30 16:12:28;;;;;;;;;;;10.80;1.00;;;;;;10371799;28;84634;-49
2022/03/30 16:17:28;;;;;;;;;;;10.70;99.90;;;;;;10376788;28;84138;-48
2022/03/30 16:22:29;;;;;;;;;;;10.50;1.00;;;;;;10374592;28;84168;-49
2022/03/30 16:27:29;;;;;;;;;;;10.30;1.00;;;;;;10370560;28;84840;-44
2022/03/30 16:32:30;;;;;;;;;;;10.00;38.20;;;;;;10374517;28;85321;-48
2022/03/30 16:37:33;;;;;;;;;;;10.10;99.90;;;;;;10358363;28;84767;-47
2022/03/30 16:42:35;;;;;;;;;;;10.10;1.00;;;;;;10340959;28;85004;-50
2022/03/30 16:47:36;;;;;;;;;;;10.10;1.00;;;;;;10359580;28;84085;-46
2022/03/30 16:52:36;;;;;;;;;;;9.90;99.90;;;;;;10400400;28;84962;-45
2022/03/30 16:57:37;;;;;;;;;;;9.80;99.90;;;;;;10372066;28;84931;-47
2022/03/30 17:02:37;;;;;;;;;;;9.70;99.90;;;;;;10372825;28;85040;-50
2022/03/30 17:07:38;;;;;;;;;;;9.60;99.90;;;;;;10354167;28;85002;-53
2022/03/30 17:12:39;;;;;;;;;;;9.40;99.90;;;;;;10373611;28;84913;-50
2022/03/30 17:17:40;;;;;;;;;;;9.30;1.00;;;;;;10353605;28;84963;-48
2022/03/30 17:22:40;;;;;;;;;;;9.20;1.00;;;;;;10377417;28;84894;-48
2022/03/30 17:27:41;;;;;;;;;;;9.20;1.00;;;;;;10373275;28;84911;-48
2022/03/30 17:32:42;;;;;;;;;;;9.10;1.00;;;;;;10371155;28;84818;-52
2022/03/30 17:37:42;;;;;;;;;;;9.00;1.00;;;;;;10398423;28;84405;-48
2022/03/30 17:42:50;;;;;;;;;;;8.90;1.00;;;;;;10372809;28;84293;-50
2022/03/30 17:47:51;;;;;;;;;;;8.80;1.00;;;;;;10349072;28;85050;-51
2022/03/30 17:52:52;;;;;;;;;;;8.80;1.00;;;;;;10361265;28;84946;-48
2022/03/30 17:57:53;;;;;;;;;;;8.80;1.00;;;;;;10345820;28;85119;-48
2022/03/30 18:02:54;;;;;;;;;;;8.70;1.00;;;;;;10363684;28;84959;-46
2022/03/30 18:07:54;;;;;;;;;;;8.70;1.00;;;;;;10343780;28;85458;-51
2022/03/30 18:12:55;;;;;;;;;;;8.60;1.00;;;;;;10383654;28;84155;-50
2022/03/30 18:17:55;;;;;;;;;;;8.60;1.00;;;;;;10351870;28;84099;-49
2022/03/30 18:22:57;;;;;;;;;;;8.60;1.00;;;;;;10339796;28;84669;-56
2022/03/30 18:27:59;;;;;;;;;;;8.50;1.00;;;;;;10360516;28;84350;-50
2022/03/30 18:33:00;;;;;;;;;;;8.50;1.00;;;;;;10349233;28;84957;-53
2022/03/30 18:38:02;;;;;;;;;;;8.60;1.00;;;;;;10325027;28;85111;-56
2022/03/30 18:43:03;;;;;;;;;;;8.50;1.00;;;;;;10369489;28;84745;-52
2022/03/30 18:48:04;;;;;;;;;;;8.40;1.00;;;;;;10361631;28;84237;-49
2022/03/30 18:53:04;;;;;;;;;;;8.30;20.80;;;;;;10333248;28;85877;-49
2022/03/30 18:58:05;;;;;;;;;;;8.30;99.90;;;;;;10328970;28;84919;-50
2022/03/30 19:03:26;;;;;;;;;;;8.20;99.90;;;;;;10339261;28;85524;-49
2022/03/30 19:08:26;;;;;;;;;;;8.00;99.90;;;;;;10437704;22;85523;-50
2022/03/30 19:13:28;;;;;;;;;;;8.00;99.90;;;;;;10441545;27;85056;-48
2022/03/30 19:18:28;;;;;;;;;;;7.90;99.90;;;;;;10435397;27;84921;-48
2022/03/30 19:23:30;;;;;;;;;;;7.90;99.90;;;;;;10420267;28;91215;-47
2022/03/30 19:28:31;;;;;;;;;;;7.90;99.90;;;;;;10425550;28;84062;-46
2022/03/30 19:33:31;;;;;;;;;;;7.80;99.90;;;;;;10401697;28;86409;-48
2022/03/30 19:38:32;;;;;;;;;;;7.70;1.00;;;;;;10404818;28;84114;-46
2022/03/30 19:43:33;;;;;;;;;;;7.70;1.00;;;;;;10407277;28;86583;-48
2022/03/30 19:48:33;;;;;;;;;;;7.60;1.00;;;;;;10434841;27;84907;-47
2022/03/30 19:53:34;;;;;;;;;;;7.70;1.00;;;;;;10439342;27;84403;-47
2022/03/30 19:58:35;;;;;;;;;;;7.70;1.00;;;;;;10431365;28;84257;-48
2022/03/30 20:03:35;;;;;;;;;;;7.60;1.00;;;;;;10426445;28;84224;-47
2022/03/30 20:08:36;;;;;;;;;;;7.60;1.00;;;;;;10405552;28;84571;-49
2022/03/30 20:13:37;;;;;;;;;;;7.50;1.00;;;;;;10441490;27;84263;-47
2022/03/30 20:18:37;;;;;;;;;;;7.50;1.00;;;;;;10429859;28;84568;-48
2022/03/30 20:23:38;;;;;;;;;;;7.30;1.00;;;;;;10432063;28;85096;-46
2022/03/30 20:28:42;;;;;;;;;;;7.20;1.00;;;;;;10436756;28;85840;-47
2022/03/30 20:33:42;;;;;;;;;;;7.10;1.00;;;;;;10440770;28;85133;-47
2022/03/30 20:38:43;;;;;;;;;;;7.10;1.00;;;;;;10432269;28;84162;-47
2022/03/30 20:43:44;;;;;;;;;;;7.10;1.00;;;;;;10430508;27;84687;-50
2022/03/30 20:48:45;;;;;;;;;;;7.00;1.00;;;;;;10433910;28;87181;-48
2022/03/30 20:53:46;;;;;;;;;;;7.00;1.00;;;;;;10419634;28;84115;-46
2022/03/30 20:58:46;;;;;;;;;;;6.90;1.00;;;;;;10415787;28;84388;-43
2022/03/30 21:03:47;;;;;;;;;;;7.00;1.00;;;;;;10452167;28;84286;-49
2022/03/30 21:08:47;;;;;;;;;;;7.00;1.00;;;;;;10435217;28;86972;-47
2022/03/30 21:13:51;;;;;;;;;;;7.00;1.00;;;;;;10456791;28;84806;-47
2022/03/30 21:18:52;;;;;;;;;;;7.00;1.00;;;;;;10437153;28;84085;-46
2022/03/30 21:23:53;;;;;;;;;;;6.90;1.00;;;;;;10422620;28;84209;-47
2022/03/30 21:28:53;;;;;;;;;;;6.70;1.00;;;;;;10441522;27;84810;-48
2022/03/30 21:33:54;;;;;;;;;;;6.70;1.00;;;;;;10470494;27;86999;-49
2022/03/30 21:38:54;;;;;;;;;;;6.70;1.00;;;;;;10467633;27;84734;-48
2022/03/30 21:43:55;;;;;;;;;;;6.60;1.00;;;;;;10462781;27;84920;-47
2022/03/30 21:48:56;;;;;;;;;;;6.60;1.00;;;;;;10382818;28;85800;-48
2022/03/30 21:53:56;;;;;;;;;;;6.60;1.00;;;;;;10416916;28;84249;-46
2022/03/30 21:58:57;;;;;;;;;;;6.60;1.00;;;;;;10391680;28;86728;-48
2022/03/30 22:03:57;;;;;;;;;;;6.60;1.00;;;;;;10413100;28;84759;-50
2022/03/30 22:08:58;;;;;;;;;;;6.60;1.00;;;;;;10412774;28;84950;-49
2022/03/30 22:13:59;;;;;;;;;;;6.60;1.00;;;;;;10413302;28;84844;-47
2022/03/30 22:18:59;;;;;;;;;;;6.50;1.00;;;;;;10411772;28;84159;-47
2022/03/30 22:24:00;;;;;;;;;;;6.40;1.00;;;;;;10411902;28;84055;-47
2022/03/30 22:29:01;;;;;;;;;;;6.30;1.00;;;;;;10440614;28;84921;-46
2022/03/30 22:39:23;;;;;;;;;;;6.30;1.00;;;;;;10448415;27;84338;-47
2022/03/30 22:44:24;;;;;;;;;;;6.30;1.00;;;;;;10463091;27;85468;-46
2022/03/30 22:49:25;;;;;;;;;;;6.20;1.00;;;;;;10442725;27;84971;-47
2022/03/30 22:54:25;;;;;;;;;;;6.10;1.00;;;;;;10428505;28;84860;-47
2022/03/30 22:59:26;;;;;;;;;;;6.10;1.00;;;;;;10432755;28;84956;-46
2022/03/30 23:04:29;;;;;;;;;;;6.10;1.00;;;;;;10410445;28;85027;-47
2022/03/30 23:09:30;;;;;;;;;;;6.10;1.00;;;;;;10434433;28;84031;-47
2022/03/30 23:14:30;;;;;;;;;;;6.10;1.00;;;;;;10438293;27;85328;-47
2022/03/30 23:19:31;;;;;;;;;;;6.00;1.00;;;;;;10444642;27;84250;-46
2022/03/30 23:24:32;;;;;;;;;;;6.10;1.00;;;;;;10417319;28;84852;-46
2022/03/30 23:29:33;;;;;;;;;;;6.00;1.00;;;;;;10433057;28;84218;-48
2022/03/30 23:34:33;;;;;;;;;;;6.00;1.00;;;;;;10452289;28;85031;-47
2022/03/30 23:39:34;;;;;;;;;;;6.00;1.00;;;;;;10433163;28;85341;-48
2022/03/30 23:44:34;;;;;;;;;;;6.00;1.00;;;;;;10427848;28;84286;-44
2022/03/30 23:49:35;;;;;;;;;;;5.90;1.00;;;;;;10415171;28;87052;-45
2022/03/30 23:54:36;;;;;;;;;;;5.80;1.00;;;;;;10428945;27;86863;-43
2022/03/30 23:59:36;;;;;;;;;;;5.90;1.00;;;;;;10438286;28;84660;-46
